createdAt,value
2019-03-19T04:01:00.717Z,1.10
2019-03-19T04:03:29.416Z,1.20
2019-03-19T04:05:58.011Z,1.20
2019-03-19T04:08:26.553Z,1.10
2019-03-19T04:10:55.507Z,1.10
2019-03-19T04:13:24.063Z,1.20
2019-03-19T04:15:52.680Z,1.10
2019-03-19T04:18:21.556Z,1.20
2019-03-19T04:20:50.128Z,1.30
2019-03-19T04:23:18.716Z,1.20
2019-03-19T04:25:47.587Z,1.20
2019-03-19T04:28:16.270Z,1.20
2019-03-19T04:30:44.847Z,1.20
2019-03-19T04:33:13.433Z,1.20
2019-03-19T04:35:42.457Z,1.20
2019-03-19T04:38:11.212Z,1.20
2019-03-19T04:40:39.851Z,1.10
2019-03-19T04:43:08.686Z,1.10
2019-03-19T04:45:37.255Z,1.10
2019-03-19T04:48:05.851Z,1.20
2019-03-19T04:50:34.415Z,1.20
2019-03-19T04:53:03.006Z,1.10
2019-03-19T04:55:31.820Z,1.00
2019-03-19T04:58:00.374Z,0.90
2019-03-19T05:00:28.964Z,0.80
2019-03-19T05:02:57.888Z,0.80
2019-03-19T05:05:26.559Z,0.80
2019-03-19T05:07:55.764Z,0.90
2019-03-19T05:10:24.322Z,1.00
2019-03-19T05:12:52.907Z,1.00
2019-03-19T05:15:21.471Z,1.10
2019-03-19T05:17:50.091Z,1.10
2019-03-19T05:20:18.695Z,1.00
2019-03-19T05:22:47.291Z,1.10
2019-03-19T05:25:16.001Z,1.10
2019-03-19T05:27:44.548Z,1.20
2019-03-19T05:30:13.139Z,1.20
2019-03-19T05:32:41.779Z,1.10
2019-03-19T05:35:10.387Z,1.20
2019-03-19T05:37:39.291Z,1.20
2019-03-19T05:40:13.286Z,1.30
2019-03-19T05:42:41.867Z,1.40
2019-03-19T05:45:10.884Z,1.40
2019-03-19T05:47:40.668Z,1.40
2019-03-19T05:50:10.445Z,1.40
2019-03-19T05:52:39.119Z,1.50
2019-03-19T05:55:08.077Z,1.60
2019-03-19T05:57:48.430Z,1.60
2019-03-19T06:00:08.099Z,1.70
2019-03-19T06:02:36.683Z,1.80
2019-03-19T06:05:05.922Z,1.80
2019-03-19T06:07:34.514Z,1.80
2019-03-19T06:10:03.279Z,1.90
2019-03-19T06:12:31.840Z,1.80
2019-03-19T06:15:00.730Z,1.90
2019-03-19T06:17:29.320Z,1.90
2019-03-19T06:19:58.175Z,2.00
2019-03-19T06:22:26.747Z,2.10
2019-03-19T06:24:55.310Z,2.10
2019-03-19T06:27:23.900Z,2.20
2019-03-19T06:29:52.518Z,2.30
2019-03-19T06:32:21.239Z,2.40
2019-03-19T06:34:49.803Z,2.60
2019-03-19T06:37:18.643Z,2.60
2019-03-19T06:39:47.226Z,2.80
2019-03-19T06:42:15.791Z,3.00
2019-03-19T06:44:44.379Z,3.20
2019-03-19T06:47:13.288Z,3.20
2019-03-19T06:49:41.847Z,3.40
2019-03-19T06:52:10.427Z,3.50
2019-03-19T06:54:38.994Z,3.60
2019-03-19T06:57:07.578Z,3.50
2019-03-19T06:59:36.419Z,3.60
2019-03-19T07:02:05.003Z,3.60
2019-03-19T07:04:33.606Z,3.80
2019-03-19T07:07:02.183Z,4.00
2019-03-19T07:09:30.774Z,4.20
2019-03-19T07:12:01.454Z,4.30
2019-03-19T07:14:29.618Z,4.30
2019-03-19T07:16:58.211Z,4.20
2019-03-19T07:19:26.833Z,4.10
2019-03-19T07:21:55.735Z,4.00
2019-03-19T07:24:24.293Z,4.10
2019-03-19T07:26:52.858Z,4.70
2019-03-19T07:29:21.447Z,5.20
2019-03-19T07:31:50.368Z,5.50
2019-03-19T07:34:18.955Z,5.90
2019-03-19T07:36:47.524Z,6.30
2019-03-19T07:39:16.106Z,6.60
2019-03-19T07:41:44.695Z,7.50
2019-03-19T07:44:13.254Z,8.00
2019-03-19T07:46:41.922Z,8.40
2019-03-19T07:49:10.487Z,8.60
2019-03-19T07:51:39.048Z,9.00
2019-03-19T07:54:07.675Z,9.70
2019-03-19T07:56:36.246Z,9.70
2019-03-19T07:59:04.851Z,10.70
2019-03-19T08:01:33.415Z,11.10
2019-03-19T08:04:02.003Z,12.20
2019-03-19T08:06:32.682Z,13.30
2019-03-19T08:09:00.953Z,13.60
2019-03-19T08:11:29.555Z,14.70
2019-03-19T08:13:58.122Z,16.60
2019-03-19T08:16:27.810Z,17.10
2019-03-19T08:18:56.451Z,17.00
2019-03-19T08:21:25.054Z,17.70
2019-03-19T08:23:53.642Z,18.50
2019-03-19T08:26:22.553Z,19.00
2019-03-19T08:28:55.290Z,18.40
2019-03-19T08:31:21.422Z,17.70
2019-03-19T08:33:50.078Z,17.90
2019-03-19T08:36:18.654Z,19.80
2019-03-19T08:38:47.214Z,20.10
2019-03-19T08:41:15.778Z,20.10
2019-03-19T08:43:44.363Z,19.50
2019-03-19T08:46:13.262Z,19.40
2019-03-19T08:48:41.882Z,19.30
2019-03-19T08:51:10.474Z,18.60
2019-03-19T08:53:39.049Z,18.10
2019-03-19T08:56:07.619Z,19.30
2019-03-19T08:58:36.482Z,19.60
2019-03-19T09:01:05.082Z,19.20
2019-03-19T09:03:33.643Z,19.30
2019-03-19T09:06:02.544Z,18.90
2019-03-19T09:08:31.127Z,19.10
2019-03-19T09:10:59.694Z,19.70
2019-03-19T09:13:28.278Z,19.70
2019-03-19T09:15:56.843Z,20.00
2019-03-19T09:18:25.439Z,19.90
2019-03-19T09:20:54.157Z,21.20
2019-03-19T09:23:22.813Z,21.10
2019-03-19T09:25:51.394Z,20.90
2019-03-19T09:28:20.007Z,21.60
2019-03-19T09:30:48.586Z,21.70
2019-03-19T09:33:17.147Z,20.60
2019-03-19T09:35:45.710Z,21.10
2019-03-19T09:38:14.362Z,22.10
2019-03-19T09:40:43.223Z,19.90
2019-03-19T09:43:11.815Z,19.20
2019-03-19T09:45:40.366Z,20.00
2019-03-19T09:48:08.931Z,21.00
2019-03-19T09:50:37.520Z,22.30
2019-03-19T09:53:06.167Z,21.80
2019-03-19T09:55:34.879Z,21.30
2019-03-19T09:58:03.443Z,20.70
2019-03-19T10:00:32.002Z,20.60
2019-03-19T10:03:00.897Z,20.90
2019-03-19T10:05:29.474Z,21.90
2019-03-19T10:07:58.051Z,23.20
2019-03-19T10:10:26.637Z,23.20
2019-03-19T10:12:55.218Z,23.00
2019-03-19T10:15:23.816Z,22.80
2019-03-19T10:17:52.379Z,23.30
2019-03-19T10:20:20.980Z,23.60
2019-03-19T10:22:49.541Z,23.50
2019-03-19T10:25:18.146Z,22.60
2019-03-19T10:27:46.844Z,22.00
2019-03-19T10:30:16.886Z,22.40
2019-03-19T10:32:45.466Z,21.70
2019-03-19T10:35:14.053Z,20.70
2019-03-19T10:37:42.618Z,19.60
2019-03-19T10:40:11.202Z,18.20
2019-03-19T10:42:39.816Z,17.40
2019-03-19T10:45:09.194Z,16.30
2019-03-19T10:47:37.756Z,15.00
2019-03-19T10:50:08.962Z,14.20
2019-03-19T10:52:37.531Z,13.60
2019-03-19T10:55:06.173Z,13.20
2019-03-19T10:57:34.739Z,12.50
2019-03-19T11:00:10.994Z,12.30
2019-03-19T11:02:39.582Z,11.70
2019-03-19T11:05:09.543Z,11.60
2019-03-19T11:07:38.142Z,11.70
2019-03-19T11:10:06.757Z,11.40
2019-03-19T11:12:35.937Z,11.20
2019-03-19T11:15:05.445Z,11.00
2019-03-19T11:17:33.994Z,10.70
2019-03-19T11:20:02.939Z,10.40
2019-03-19T11:22:33.415Z,10.00
2019-03-19T11:25:02.150Z,10.00
2019-03-19T11:27:30.765Z,9.90
2019-03-19T11:30:00.174Z,9.70
2019-03-19T11:32:29.535Z,9.70
2019-03-19T11:34:58.119Z,9.80
2019-03-19T11:37:26.677Z,9.70
2019-03-19T11:39:55.249Z,9.80
2019-03-19T11:42:23.816Z,9.70
2019-03-19T11:44:52.373Z,10.00
2019-03-19T11:47:20.990Z,10.50
2019-03-19T11:49:49.567Z,11.10
2019-03-19T11:52:18.164Z,11.80
2019-03-19T11:54:46.726Z,12.40
2019-03-19T11:57:15.291Z,13.60
2019-03-19T11:59:43.866Z,15.50
2019-03-19T12:02:12.426Z,17.60
2019-03-19T12:04:41.006Z,19.40
2019-03-19T12:07:09.566Z,18.60
2019-03-19T12:09:40.044Z,17.60
2019-03-19T12:12:08.446Z,16.70
2019-03-19T12:14:37.358Z,14.90
2019-03-19T12:17:05.942Z,13.60
2019-03-19T12:19:34.502Z,13.10
2019-03-19T12:22:03.086Z,12.50
2019-03-19T12:24:32.733Z,12.00
2019-03-19T12:27:01.530Z,11.60
2019-03-19T12:29:30.110Z,11.30
2019-03-19T12:31:58.679Z,11.00
2019-03-19T12:34:27.274Z,10.90
2019-03-19T12:36:55.870Z,10.90
2019-03-19T12:39:24.466Z,11.00
2019-03-19T12:41:53.054Z,11.00
2019-03-19T12:44:21.890Z,11.30
2019-03-19T12:46:50.514Z,11.60
2019-03-19T12:49:19.077Z,11.50
2019-03-19T12:51:47.645Z,11.40
2019-03-19T12:54:37.813Z,11.40
2019-03-19T12:57:05.814Z,11.50
2019-03-19T12:59:34.398Z,11.50
2019-03-19T13:02:02.995Z,11.50
2019-03-19T13:04:31.647Z,11.50
2019-03-19T13:07:00.231Z,11.40
2019-03-19T13:09:28.794Z,11.50
2019-03-19T13:11:57.379Z,12.10
2019-03-19T13:14:25.949Z,13.00
2019-03-19T13:16:54.523Z,13.30
2019-03-19T13:19:23.102Z,14.40
2019-03-19T13:21:51.662Z,15.60
2019-03-19T13:24:20.250Z,17.10
2019-03-19T13:26:48.852Z,17.60
2019-03-19T13:29:17.416Z,18.30
2019-03-19T13:31:46.015Z,18.20
2019-03-19T13:34:14.583Z,18.40
2019-03-19T13:36:43.474Z,18.40
2019-03-19T13:39:12.047Z,18.00
2019-03-19T13:41:40.607Z,17.90
2019-03-19T13:44:11.270Z,17.20
2019-03-19T13:46:39.495Z,16.30
2019-03-19T13:49:08.078Z,16.00
2019-03-19T13:51:36.648Z,15.60
2019-03-19T13:54:05.299Z,14.80
2019-03-19T13:56:33.883Z,14.00
2019-03-19T13:59:02.459Z,13.80
2019-03-19T14:01:31.156Z,13.60
2019-03-19T14:03:59.718Z,13.80
2019-03-19T14:06:28.608Z,13.60
2019-03-19T14:08:57.178Z,13.20
2019-03-19T14:11:25.741Z,13.10
2019-03-19T14:13:55.754Z,13.20
2019-03-19T14:16:24.571Z,13.00
2019-03-19T14:18:53.375Z,12.70
2019-03-19T14:21:21.959Z,12.70
2019-03-19T14:23:50.521Z,12.80
2019-03-19T14:26:19.102Z,12.60
2019-03-19T14:28:48.027Z,12.40
2019-03-19T14:31:16.686Z,12.50
2019-03-19T14:33:45.647Z,12.30
2019-03-19T14:36:14.211Z,12.10
2019-03-19T14:38:47.045Z,12.00
2019-03-19T14:41:13.170Z,11.70
2019-03-19T14:43:42.067Z,11.80
2019-03-19T14:46:10.674Z,11.70
2019-03-19T14:48:39.258Z,11.80
2019-03-19T14:51:07.860Z,11.70
2019-03-19T14:53:36.422Z,11.60
2019-03-19T14:56:05.159Z,11.70
2019-03-19T14:58:33.744Z,11.70
2019-03-19T15:01:02.307Z,11.60
2019-03-19T15:03:30.914Z,11.60
2019-03-19T15:05:59.504Z,11.40
2019-03-19T15:08:28.410Z,11.20
2019-03-19T15:10:56.999Z,11.00
2019-03-19T15:13:26.118Z,11.10
2019-03-19T15:15:54.715Z,11.10
2019-03-19T15:18:23.634Z,11.00
2019-03-19T15:20:53.119Z,11.00
2019-03-19T15:23:21.885Z,10.90
2019-03-19T15:25:50.549Z,10.90
2019-03-19T15:28:19.567Z,10.90
2019-03-19T15:30:48.166Z,11.00
2019-03-19T15:33:16.738Z,11.00
2019-03-19T15:35:45.624Z,11.00
2019-03-19T15:38:14.269Z,10.80
2019-03-19T15:40:42.911Z,10.90
2019-03-19T15:43:11.839Z,10.60
2019-03-19T15:45:40.674Z,10.60
2019-03-19T15:48:09.440Z,10.50
2019-03-19T15:50:38.015Z,10.60
2019-03-19T15:53:06.618Z,10.50
2019-03-19T15:55:35.237Z,10.60
2019-03-19T15:58:03.863Z,10.70
2019-03-19T16:00:32.519Z,10.60
2019-03-19T16:03:01.082Z,10.60
2019-03-19T16:05:29.658Z,10.50
2019-03-19T16:07:58.218Z,10.50
2019-03-19T16:10:26.777Z,10.30
2019-03-19T16:12:55.692Z,10.40
2019-03-19T16:15:24.374Z,10.40
2019-03-19T16:17:52.953Z,10.40
2019-03-19T16:20:21.515Z,10.40
2019-03-19T16:22:50.082Z,10.30
2019-03-19T16:25:18.666Z,10.30
2019-03-19T16:27:47.288Z,10.20
2019-03-19T16:30:15.938Z,10.00
2019-03-19T16:32:44.549Z,10.00
2019-03-19T16:35:13.113Z,9.90
2019-03-19T16:37:41.702Z,9.70
2019-03-19T16:40:13.083Z,9.70
2019-03-19T16:42:41.935Z,9.70
2019-03-19T16:45:10.537Z,9.50
2019-03-19T16:47:39.171Z,9.30
2019-03-19T16:50:08.867Z,9.30
2019-03-19T16:52:37.424Z,9.30
2019-03-19T16:55:06.144Z,9.20
2019-03-19T16:57:34.751Z,9.20
2019-03-19T17:00:03.375Z,9.20
2019-03-19T17:02:31.997Z,8.90
2019-03-19T17:05:00.598Z,8.90
2019-03-19T17:07:29.234Z,8.90
2019-03-19T17:09:57.797Z,8.90
2019-03-19T17:12:26.358Z,8.90
2019-03-19T17:14:55.250Z,8.80
2019-03-19T17:17:23.882Z,8.70
2019-03-19T17:19:52.458Z,8.60
2019-03-19T17:22:21.014Z,8.50
2019-03-19T17:24:49.590Z,8.40
2019-03-19T17:27:18.196Z,8.40
2019-03-19T17:29:46.746Z,8.30
2019-03-19T17:32:15.338Z,8.30
2019-03-19T17:34:44.020Z,8.20
2019-03-19T17:37:12.579Z,8.20
2019-03-19T17:39:43.263Z,8.20
2019-03-19T17:42:11.859Z,8.10
2019-03-19T17:44:40.493Z,8.10
2019-03-19T17:47:09.161Z,8.10
2019-03-19T17:49:37.966Z,8.00
2019-03-19T17:52:06.578Z,8.00
2019-03-19T17:54:35.134Z,8.00
2019-03-19T17:57:03.690Z,7.90
2019-03-19T17:59:32.303Z,7.80
2019-03-19T18:02:01.189Z,7.70
2019-03-19T18:04:29.822Z,7.60
2019-03-19T18:06:58.379Z,7.60
2019-03-19T18:09:26.938Z,7.50
2019-03-19T18:11:55.547Z,7.40
2019-03-19T18:14:24.252Z,7.40
2019-03-19T18:16:52.854Z,7.30
2019-03-19T18:19:21.451Z,7.30
2019-03-19T18:21:50.359Z,7.20
2019-03-19T18:24:18.911Z,7.10
2019-03-19T18:26:47.850Z,7.10
2019-03-19T18:29:16.718Z,7.00
2019-03-19T18:31:45.297Z,6.90
2019-03-19T18:34:13.899Z,6.80
2019-03-19T18:36:42.490Z,6.80
2019-03-19T18:39:11.046Z,6.70
2019-03-19T18:41:39.629Z,6.70
2019-03-19T18:44:08.209Z,6.70
2019-03-19T18:46:36.762Z,6.50
2019-03-19T18:49:05.346Z,6.50
2019-03-19T18:51:33.915Z,6.40
2019-03-19T18:54:02.469Z,6.40
2019-03-19T18:56:31.055Z,6.30
2019-03-19T18:58:59.868Z,6.30
2019-03-19T19:01:28.506Z,6.20
2019-03-19T19:03:57.114Z,6.20
2019-03-19T19:06:25.917Z,6.10
2019-03-19T19:08:54.591Z,6.10
2019-03-19T19:11:23.183Z,6.00
2019-03-19T19:13:51.978Z,6.00
2019-03-19T19:16:20.660Z,5.90
2019-03-19T19:18:49.533Z,5.80
2019-03-19T19:21:18.874Z,5.80
2019-03-19T19:23:48.184Z,5.70
2019-03-19T19:26:17.374Z,5.70
2019-03-19T19:28:47.347Z,5.60
2019-03-19T19:31:16.017Z,5.50
2019-03-19T19:33:44.643Z,5.40
2019-03-19T19:36:13.289Z,5.30
2019-03-19T19:38:41.925Z,5.30
2019-03-19T19:41:10.794Z,5.20
2019-03-19T19:43:39.466Z,5.10
2019-03-19T19:46:08.136Z,5.10
2019-03-19T19:48:37.024Z,5.00
2019-03-19T19:51:05.605Z,4.90
2019-03-19T19:53:34.175Z,4.90
2019-03-19T19:56:02.899Z,4.80
2019-03-19T19:58:31.506Z,4.80
2019-03-19T20:01:00.171Z,4.70
2019-03-19T20:03:28.858Z,4.70
2019-03-19T20:05:57.428Z,4.60
2019-03-19T20:08:26.010Z,4.50
2019-03-19T20:10:54.711Z,4.40
2019-03-19T20:13:42.591Z,4.40
2019-03-19T20:16:11.187Z,4.30
2019-03-19T20:18:39.823Z,4.20
2019-03-19T20:21:08.466Z,4.10
2019-03-19T20:23:37.050Z,4.20
2019-03-19T20:26:05.618Z,4.10
2019-03-19T20:28:34.228Z,4.00
2019-03-19T20:31:02.805Z,4.00
2019-03-19T20:33:31.682Z,3.90
2019-03-19T20:36:00.243Z,3.90
2019-03-19T20:38:29.169Z,3.80
2019-03-19T20:40:57.746Z,3.70
2019-03-19T20:43:26.645Z,3.60
2019-03-19T20:45:55.520Z,3.60
2019-03-19T20:48:24.365Z,3.50
2019-03-19T20:50:53.658Z,3.50
2019-03-19T20:53:22.326Z,3.40
2019-03-19T20:55:51.174Z,3.40
2019-03-19T20:58:19.734Z,3.30
2019-03-19T21:00:48.323Z,3.20
2019-03-19T21:03:16.886Z,3.10
2019-03-19T21:05:45.454Z,3.10
2019-03-19T21:08:14.040Z,3.00
2019-03-19T21:10:42.598Z,3.00
2019-03-19T21:13:11.160Z,2.90
2019-03-19T21:15:39.738Z,2.90
2019-03-19T21:18:08.335Z,2.80
2019-03-19T21:20:36.895Z,2.80
2019-03-19T21:23:05.545Z,2.70
2019-03-19T21:25:34.129Z,2.70
2019-03-19T21:28:13.192Z,2.60
2019-03-19T21:30:32.999Z,2.50
2019-03-19T21:33:01.559Z,2.50
2019-03-19T21:35:30.195Z,2.40
2019-03-19T21:37:58.778Z,2.30
2019-03-19T21:40:27.347Z,2.30
2019-03-19T21:42:55.928Z,2.20
2019-03-19T21:45:24.535Z,2.20
2019-03-19T21:47:53.103Z,2.20
2019-03-19T21:50:21.662Z,2.10
2019-03-19T21:52:50.363Z,2.20
2019-03-19T21:55:18.914Z,2.20
2019-03-19T21:57:47.499Z,2.20
2019-03-19T22:00:16.783Z,2.10
2019-03-19T22:02:45.349Z,2.10
2019-03-19T22:05:13.909Z,1.90
2019-03-19T22:07:42.507Z,2.00
2019-03-19T22:10:12.302Z,1.90
2019-03-19T22:12:40.905Z,1.90
2019-03-19T22:15:13.498Z,1.90
2019-03-19T22:17:42.062Z,1.90
2019-03-19T22:20:10.643Z,1.90
2019-03-19T22:22:39.223Z,1.90
2019-03-19T22:25:09.122Z,1.80
2019-03-19T22:27:37.758Z,1.80
2019-03-19T22:30:07.649Z,1.70
2019-03-19T22:32:36.206Z,1.70
2019-03-19T22:35:05.201Z,1.60
2019-03-19T22:37:33.777Z,1.60
2019-03-19T22:40:02.341Z,1.60
2019-03-19T22:42:30.923Z,1.50
2019-03-19T22:44:59.554Z,1.50
2019-03-19T22:47:28.180Z,1.40
2019-03-19T22:49:57.055Z,1.40
2019-03-19T22:52:25.630Z,1.40
2019-03-19T22:54:54.524Z,1.40
2019-03-19T22:57:23.462Z,1.40
2019-03-19T22:59:52.159Z,1.30
